createdAt,value
2019-02-14T00:02:04.528Z,15.13
2019-02-14T00:49:58.416Z,16.23
2019-02-14T00:52:26.796Z,15.97
2019-02-14T00:54:55.183Z,16.33
2019-02-14T00:57:23.567Z,17.00
2019-02-14T00:59:51.953Z,16.63
2019-02-14T01:02:20.339Z,16.93
2019-02-14T01:04:48.723Z,17.47
2019-02-14T01:07:17.119Z,16.97
2019-02-14T01:09:45.512Z,15.60
2019-02-14T01:12:14.059Z,15.27
2019-02-14T01:14:42.456Z,16.77
2019-02-14T01:17:10.832Z,17.10
2019-02-14T01:19:39.231Z,16.50
2019-02-14T01:22:07.609Z,17.17
2019-02-14T01:24:35.999Z,18.53
2019-02-14T01:27:04.384Z,18.60
2019-02-14T01:29:32.836Z,19.90
2019-02-14T01:32:01.224Z,20.77
2019-02-14T01:34:29.616Z,24.87
2019-02-14T01:36:58.008Z,19.20
2019-02-14T01:39:26.397Z,21.40
2019-02-14T01:41:54.768Z,21.80
2019-02-14T01:44:23.232Z,23.47
2019-02-14T01:46:51.801Z,22.80
2019-02-14T01:49:20.188Z,21.63
2019-02-14T01:51:48.571Z,21.03
2019-02-14T01:54:16.972Z,20.33
2019-02-14T01:56:45.369Z,19.77
2019-02-14T01:59:13.744Z,20.47
2019-02-14T02:01:42.142Z,20.70
2019-02-14T02:04:10.515Z,18.40
2019-02-14T02:06:38.907Z,20.13
2019-02-14T02:09:07.284Z,18.83
2019-02-14T02:11:35.659Z,19.17
2019-02-14T02:14:04.220Z,19.00
2019-02-14T02:16:32.605Z,19.17
2019-02-14T02:19:00.991Z,19.53
2019-02-14T02:21:29.372Z,20.27
2019-02-14T02:23:57.764Z,20.50
2019-02-14T02:26:26.150Z,21.83
2019-02-14T02:28:54.542Z,19.93
2019-02-14T02:31:22.935Z,18.07
2019-02-14T02:33:51.328Z,20.27
2019-02-14T02:36:19.721Z,18.93
2019-02-14T02:38:48.171Z,20.03
2019-02-14T02:41:16.569Z,19.07
2019-02-14T02:43:44.951Z,19.57
2019-02-14T02:46:13.345Z,17.40
2019-02-14T02:48:41.723Z,15.97
2019-02-14T02:51:10.133Z,15.17
2019-02-14T02:53:38.499Z,15.37
2019-02-14T02:56:06.891Z,13.60
2019-02-14T02:58:35.272Z,14.53
2019-02-14T03:01:03.655Z,13.97
2019-02-14T03:03:32.048Z,13.97
2019-02-14T03:06:08.613Z,16.90
2019-02-14T03:08:30.563Z,15.07
2019-02-14T03:10:59.022Z,15.20
2019-02-14T03:13:27.412Z,16.60
2019-02-14T03:15:55.800Z,14.17
2019-02-14T03:18:24.203Z,13.07
2019-02-14T03:20:52.580Z,13.97
2019-02-14T03:23:20.955Z,13.10
2019-02-14T03:25:49.344Z,13.63
2019-02-14T03:28:17.716Z,12.00
2019-02-14T03:30:46.115Z,10.90
2019-02-14T03:33:14.505Z,12.63
2019-02-14T03:35:42.900Z,12.10
2019-02-14T03:38:11.275Z,13.20
2019-02-14T03:40:39.662Z,11.30
2019-02-14T03:43:08.056Z,12.03
2019-02-14T03:45:36.447Z,13.03
2019-02-14T03:48:04.832Z,12.17
2019-02-14T03:50:33.223Z,11.23
2019-02-14T03:53:01.610Z,10.40
2019-02-14T03:55:30.043Z,11.13
2019-02-14T03:57:58.431Z,10.90
2019-02-14T04:00:26.811Z,11.03
2019-02-14T04:02:55.207Z,12.47
2019-02-14T04:05:23.592Z,11.17
2019-02-14T04:07:51.996Z,10.73
2019-02-14T04:10:20.380Z,10.50
2019-02-14T04:12:48.773Z,10.97
2019-02-14T04:15:18.204Z,11.93
2019-02-14T04:17:46.588Z,10.90
2019-02-14T04:20:14.971Z,10.63
2019-02-14T04:22:43.367Z,12.77
2019-02-14T04:25:11.755Z,12.73
2019-02-14T04:27:40.158Z,12.10
2019-02-14T04:30:12.892Z,12.80
2019-02-14T04:32:41.267Z,12.93
2019-02-14T04:35:09.805Z,13.23
2019-02-14T04:37:38.199Z,14.23
2019-02-14T04:40:09.595Z,13.43
2019-02-14T04:42:37.991Z,15.17
2019-02-14T04:45:07.911Z,15.67
2019-02-14T04:47:36.307Z,14.17
2019-02-14T04:50:06.632Z,13.40
2019-02-14T04:52:35.027Z,13.03
2019-02-14T04:55:04.083Z,14.60
2019-02-14T04:57:32.466Z,14.00
2019-02-14T05:00:00.864Z,12.67
2019-02-14T05:02:29.260Z,12.93
2019-02-14T05:04:57.647Z,12.27
2019-02-14T05:07:26.040Z,11.33
2019-02-14T05:09:54.421Z,11.83
2019-02-14T05:12:22.804Z,11.83
2019-02-14T05:14:51.204Z,10.90
2019-02-14T05:17:19.591Z,11.80
2019-02-14T05:19:47.988Z,12.37
2019-02-14T05:22:16.371Z,11.50
2019-02-14T05:24:44.763Z,9.43
2019-02-14T05:27:13.140Z,9.33
2019-02-14T05:29:41.534Z,9.03
2019-02-14T05:32:09.913Z,8.17
2019-02-14T05:34:38.304Z,9.13
2019-02-14T05:37:06.685Z,8.40
2019-02-14T05:39:35.076Z,9.07
2019-02-14T05:42:03.455Z,8.10
2019-02-14T05:44:31.856Z,8.20
2019-02-14T05:47:00.232Z,8.63
2019-02-14T05:49:28.631Z,8.57
2019-02-14T05:51:57.012Z,8.07
2019-02-14T05:54:25.403Z,8.33
2019-02-14T05:56:53.780Z,8.17
2019-02-14T05:59:22.168Z,9.47
2019-02-14T06:01:50.547Z,9.87
2019-02-14T06:04:18.923Z,9.63
2019-02-14T06:06:47.311Z,8.97
2019-02-14T06:09:15.695Z,11.67
2019-02-14T06:11:44.092Z,10.40
2019-02-14T06:14:12.483Z,10.13
2019-02-14T06:16:40.932Z,10.70
2019-02-14T06:19:09.326Z,10.50
2019-02-14T06:21:37.703Z,10.13
2019-02-14T06:24:06.091Z,9.00
2019-02-14T06:26:34.475Z,8.23
2019-02-14T06:29:02.875Z,9.37
2019-02-14T06:31:31.255Z,8.67
2019-02-14T06:33:59.639Z,9.30
2019-02-14T06:36:28.043Z,9.10
2019-02-14T06:38:56.407Z,9.53
2019-02-14T06:41:24.783Z,9.27
2019-02-14T06:43:53.172Z,8.60
2019-02-14T06:46:21.555Z,8.17
2019-02-14T06:49:09.285Z,7.50
2019-02-14T06:51:37.676Z,9.00
2019-02-14T06:54:06.051Z,8.83
2019-02-14T06:56:34.437Z,9.77
2019-02-14T06:59:02.836Z,8.87
2019-02-14T07:01:31.215Z,10.17
2019-02-14T07:03:59.603Z,9.70
2019-02-14T07:06:30.685Z,8.20
2019-02-14T07:08:59.083Z,6.60
2019-02-14T07:11:27.460Z,6.50
2019-02-14T07:13:55.843Z,6.60
2019-02-14T07:16:24.236Z,7.53
2019-02-14T07:18:52.622Z,6.93
2019-02-14T07:21:21.803Z,7.10
2019-02-14T07:23:50.367Z,6.83
2019-02-14T07:26:18.759Z,6.40
2019-02-14T07:28:49.418Z,6.40
2019-02-14T07:31:18.135Z,5.70
2019-02-14T07:33:46.520Z,6.03
2019-02-14T07:36:14.912Z,5.57
2019-02-14T07:38:43.283Z,5.47
2019-02-14T07:41:11.671Z,6.43
2019-02-14T07:43:40.271Z,6.63
2019-02-14T07:46:08.662Z,5.53
2019-02-14T07:48:37.036Z,6.47
2019-02-14T07:51:05.411Z,6.87
2019-02-14T07:53:33.795Z,6.57
2019-02-14T07:56:02.184Z,6.53
2019-02-14T07:58:30.588Z,7.53
2019-02-14T08:00:58.963Z,7.50
2019-02-14T08:03:27.356Z,7.80
2019-02-14T08:05:55.736Z,6.50
2019-02-14T08:08:24.114Z,7.80
2019-02-14T08:10:52.504Z,6.00
2019-02-14T08:13:20.883Z,5.70
2019-02-14T08:15:49.264Z,5.97
2019-02-14T08:18:17.655Z,6.03
2019-02-14T08:20:46.038Z,7.03
2019-02-14T08:23:14.640Z,6.17
2019-02-14T08:25:43.036Z,6.60
2019-02-14T08:28:11.416Z,6.30
2019-02-14T08:30:39.791Z,6.20
2019-02-14T08:33:08.179Z,7.13
2019-02-14T08:35:36.572Z,5.90
2019-02-14T08:38:05.095Z,5.73
2019-02-14T08:40:33.823Z,9.83
2019-02-14T08:43:02.216Z,5.17
2019-02-14T08:45:31.079Z,5.43
2019-02-14T08:47:59.472Z,5.67
2019-02-14T08:50:27.853Z,5.07
2019-02-14T08:52:56.244Z,5.67
2019-02-14T08:55:24.624Z,5.57
2019-02-14T08:57:53.016Z,5.33
2019-02-14T09:00:21.397Z,5.63
2019-02-14T09:02:49.790Z,5.60
2019-02-14T09:05:18.164Z,6.67
2019-02-14T09:07:54.231Z,5.50
2019-02-14T09:10:17.200Z,5.27
2019-02-14T09:12:45.576Z,5.30
2019-02-14T09:15:14.991Z,4.50
2019-02-14T09:17:43.377Z,4.93
2019-02-14T09:20:16.591Z,7.33
2019-02-14T09:22:44.973Z,6.13
2019-02-14T09:25:13.443Z,4.60
2019-02-14T09:27:41.814Z,4.30
2019-02-14T09:30:14.711Z,4.40
2019-02-14T09:32:43.160Z,4.30
2019-02-14T09:35:11.623Z,4.67
2019-02-14T09:37:40.000Z,3.30
2019-02-14T09:40:11.499Z,3.53
2019-02-14T09:42:39.875Z,3.90
2019-02-14T09:45:10.926Z,4.37
2019-02-14T09:47:39.366Z,7.97
2019-02-14T09:50:12.757Z,5.37
2019-02-14T09:52:41.714Z,5.57
2019-02-14T09:55:12.242Z,4.73
2019-02-14T09:57:40.637Z,4.83
2019-02-14T10:00:14.183Z,4.33
2019-02-14T10:02:42.581Z,3.97
2019-02-14T10:05:11.296Z,3.93
2019-02-14T10:07:39.684Z,3.53
2019-02-14T10:10:13.714Z,3.90
2019-02-14T10:12:42.083Z,3.77
2019-02-14T10:15:11.096Z,4.40
2019-02-14T10:17:39.479Z,4.17
2019-02-14T10:20:13.320Z,4.00
2019-02-14T10:22:41.703Z,4.37
2019-02-14T10:25:10.841Z,4.30
2019-02-14T10:27:39.216Z,4.00
2019-02-14T10:30:18.927Z,3.57
2019-02-14T10:32:47.300Z,3.73
2019-02-14T10:35:15.744Z,4.57
2019-02-14T10:37:44.379Z,3.70
2019-02-14T10:40:17.048Z,4.30
2019-02-14T10:42:45.449Z,3.80
2019-02-14T10:45:21.480Z,6.60
2019-02-14T10:47:49.868Z,5.43
2019-02-14T10:50:18.243Z,5.50
2019-02-14T10:52:46.631Z,4.90
2019-02-14T10:55:16.056Z,5.63
2019-02-14T10:57:44.515Z,4.47
2019-02-14T11:00:19.368Z,4.00
2019-02-14T11:02:48.034Z,4.37
2019-02-14T11:05:17.355Z,4.63
2019-02-14T11:07:45.729Z,3.77
2019-02-14T11:10:14.959Z,3.27
2019-02-14T11:12:43.331Z,3.80
2019-02-14T11:15:17.096Z,5.60
2019-02-14T11:17:45.494Z,3.80
2019-02-14T11:20:14.816Z,3.17
2019-02-14T11:22:43.212Z,3.27
2019-02-14T11:25:23.220Z,3.40
2019-02-14T11:27:51.622Z,3.83
2019-02-14T11:30:19.997Z,4.70
2019-02-14T11:32:48.383Z,3.43
2019-02-14T11:35:16.831Z,3.33
2019-02-14T11:37:45.224Z,3.70
2019-02-14T11:40:14.448Z,3.13
2019-02-14T11:42:42.837Z,3.20
2019-02-14T11:45:16.728Z,2.80
2019-02-14T11:47:45.112Z,3.10
2019-02-14T11:50:13.581Z,3.13
2019-02-14T11:52:41.956Z,3.10
2019-02-14T11:55:11.584Z,3.17
2019-02-14T11:57:39.963Z,2.93
2019-02-14T12:00:24.265Z,3.70
2019-02-14T12:02:55.462Z,3.70
2019-02-14T12:05:22.771Z,4.03
2019-02-14T12:07:51.153Z,3.40
2019-02-14T12:10:19.541Z,3.17
2019-02-14T12:12:47.936Z,3.57
2019-02-14T12:15:16.312Z,3.30
2019-02-14T12:17:44.703Z,3.97
2019-02-14T12:20:14.724Z,4.67
2019-02-14T12:22:46.830Z,2.67
2019-02-14T12:25:21.916Z,3.10
2019-02-14T12:27:50.424Z,2.80
2019-02-14T12:30:18.809Z,2.90
2019-02-14T12:32:47.190Z,2.63
2019-02-14T12:35:15.577Z,2.80
2019-02-14T12:37:43.956Z,2.57
2019-02-14T12:40:13.585Z,2.67
2019-02-14T12:42:41.963Z,2.58
2019-02-14T12:45:20.457Z,2.90
2019-02-14T12:47:46.356Z,2.70
2019-02-14T12:50:14.734Z,2.30
2019-02-14T12:52:43.129Z,2.20
2019-02-14T12:55:11.516Z,2.60
2019-02-14T12:57:39.907Z,2.05
2019-02-14T13:00:11.535Z,2.65
2019-02-14T13:02:39.940Z,2.02
2019-02-14T13:05:09.135Z,1.92
2019-02-14T13:07:37.520Z,2.05
2019-02-14T13:10:09.300Z,2.22
2019-02-14T13:12:37.696Z,2.30
2019-02-14T13:15:09.151Z,2.47
2019-02-14T13:17:37.521Z,2.40
2019-02-14T13:20:07.552Z,2.85
2019-02-14T13:22:35.932Z,2.15
2019-02-14T13:25:06.811Z,2.20
2019-02-14T13:27:35.208Z,1.90
2019-02-14T13:30:04.644Z,2.05
2019-02-14T13:32:33.020Z,2.35
2019-02-14T13:35:01.403Z,2.22
2019-02-14T13:37:29.799Z,2.08
2019-02-14T13:39:58.179Z,1.67
2019-02-14T13:42:26.574Z,2.02
2019-02-14T13:44:54.963Z,1.32
2019-02-14T13:47:23.329Z,1.42
2019-02-14T13:49:51.728Z,1.80
2019-02-14T13:52:20.168Z,3.10
2019-02-14T13:54:48.562Z,1.30
2019-02-14T13:57:16.945Z,1.30
2019-02-14T13:59:45.335Z,2.37
2019-02-14T14:02:13.720Z,1.87
2019-02-14T14:04:42.116Z,1.35
2019-02-14T14:07:10.497Z,1.55
2019-02-14T14:09:39.091Z,1.90
2019-02-14T14:12:07.552Z,1.35
2019-02-14T14:14:35.933Z,1.60
2019-02-14T14:17:04.316Z,1.70
2019-02-14T14:19:32.726Z,1.80
2019-02-14T14:22:01.102Z,2.08
2019-02-14T14:24:29.480Z,1.70
2019-02-14T14:26:57.860Z,1.80
2019-02-14T14:29:26.244Z,2.45
2019-02-14T14:31:54.642Z,2.10
2019-02-14T14:34:23.032Z,1.55
2019-02-14T14:36:51.426Z,1.60
2019-02-14T14:39:19.807Z,1.87
2019-02-14T14:41:48.195Z,2.47
2019-02-14T14:44:18.217Z,2.97
2019-02-14T14:46:46.676Z,2.20
2019-02-14T14:49:15.055Z,2.93
2019-02-14T14:51:43.444Z,2.67
2019-02-14T14:54:11.832Z,3.17
2019-02-14T14:56:40.219Z,3.00
2019-02-14T14:59:09.458Z,2.70
2019-02-14T15:01:37.822Z,2.80
2019-02-14T15:04:06.208Z,2.90
2019-02-14T15:06:34.591Z,3.10
2019-02-14T15:09:03.152Z,3.30
2019-02-14T15:11:31.528Z,3.20
2019-02-14T15:13:59.992Z,3.27
2019-02-14T15:16:28.387Z,3.53
2019-02-14T15:18:56.764Z,3.80
2019-02-14T15:21:25.162Z,2.60
2019-02-14T15:23:53.535Z,3.50
2019-02-14T15:26:21.938Z,3.20
2019-02-14T15:28:50.316Z,3.20
2019-02-14T15:31:18.698Z,3.50
2019-02-14T15:33:47.080Z,4.10
2019-02-14T15:36:15.473Z,3.27
2019-02-14T15:38:43.861Z,3.40
2019-02-14T15:41:12.243Z,3.50
2019-02-14T15:43:40.623Z,3.83
2019-02-14T15:46:09.025Z,4.67
2019-02-14T15:48:37.395Z,4.47
2019-02-14T15:51:05.777Z,5.13
2019-02-14T15:53:34.184Z,5.23
2019-02-14T15:56:03.349Z,4.33
2019-02-14T15:58:33.175Z,5.17
2019-02-14T16:01:01.644Z,5.23
2019-02-14T16:03:30.031Z,4.50
2019-02-14T16:05:58.426Z,5.50
2019-02-14T16:08:26.823Z,6.40
2019-02-14T16:10:55.907Z,6.83
2019-02-14T16:13:24.363Z,6.90
2019-02-14T16:15:53.897Z,7.00
2019-02-14T16:18:23.671Z,6.97
2019-02-14T16:20:52.975Z,6.63
2019-02-14T16:23:21.369Z,7.53
2019-02-14T16:25:51.685Z,8.27
2019-02-14T16:28:19.855Z,7.63
2019-02-14T16:30:48.244Z,8.53
2019-02-14T16:33:16.624Z,8.50
2019-02-14T16:35:45.023Z,6.60
2019-02-14T16:38:14.046Z,7.20
2019-02-14T16:40:42.555Z,9.13
2019-02-14T16:43:10.950Z,9.63
2019-02-14T16:45:39.331Z,8.27
2019-02-14T16:48:07.712Z,9.10
2019-02-14T16:50:36.096Z,9.33
2019-02-14T16:53:04.507Z,7.80
2019-02-14T16:55:32.904Z,9.20
2019-02-14T16:58:01.295Z,10.60
2019-02-14T17:00:29.676Z,9.40
2019-02-14T17:02:58.067Z,12.10
2019-02-14T17:05:26.451Z,9.90
2019-02-14T17:07:56.130Z,9.07
2019-02-14T17:10:24.800Z,8.87
2019-02-14T17:12:53.171Z,9.57
2019-02-14T17:15:21.555Z,9.30
2019-02-14T17:17:49.935Z,8.57
2019-02-14T17:20:18.316Z,9.87
2019-02-14T17:22:46.699Z,9.50
2019-02-14T17:25:17.125Z,10.20
2019-02-14T17:27:45.196Z,8.43
2019-02-14T17:30:13.583Z,9.00
2019-02-14T17:32:41.965Z,8.07
2019-02-14T17:35:10.349Z,7.90
2019-02-14T17:37:38.731Z,7.50
2019-02-14T17:40:09.355Z,7.83
2019-02-14T17:42:37.754Z,8.77
2019-02-14T17:45:08.898Z,8.33
2019-02-14T17:47:37.275Z,7.50
2019-02-14T17:50:06.300Z,6.80
2019-02-14T17:52:34.692Z,7.43
2019-02-14T17:55:03.141Z,7.17
2019-02-14T17:57:31.515Z,6.93
2019-02-14T17:59:59.905Z,6.10
2019-02-14T18:02:28.734Z,6.23
2019-02-14T18:04:57.261Z,5.67
2019-02-14T18:07:25.646Z,6.07
2019-02-14T18:09:54.033Z,6.33
2019-02-14T18:12:22.420Z,6.10
2019-02-14T18:14:50.791Z,6.03
2019-02-14T18:17:19.159Z,6.23
2019-02-14T18:19:47.548Z,6.53
2019-02-14T18:22:35.265Z,5.63
2019-02-14T18:25:06.402Z,5.70
2019-02-14T18:27:34.786Z,5.87
2019-02-14T18:30:03.995Z,5.40
2019-02-14T18:32:32.385Z,4.27
2019-02-14T18:35:00.760Z,5.13
2019-02-14T18:37:29.153Z,5.10
2019-02-14T18:39:57.528Z,4.87
2019-02-14T18:42:25.916Z,4.43
2019-02-14T18:44:54.304Z,5.03
2019-02-14T18:47:22.679Z,3.87
2019-02-14T18:49:51.347Z,4.37
2019-02-14T18:52:19.707Z,4.10
2019-02-14T18:54:48.103Z,3.90
2019-02-14T18:57:16.478Z,4.30
2019-02-14T18:59:44.849Z,3.90
2019-02-14T19:02:13.236Z,3.87
2019-02-14T19:04:41.623Z,4.30
2019-02-14T19:07:10.091Z,3.70
2019-02-14T19:09:38.521Z,3.57
2019-02-14T19:12:07.479Z,4.27
2019-02-14T19:14:35.862Z,3.93
2019-02-14T19:17:04.306Z,3.80
2019-02-14T19:19:32.691Z,5.00
2019-02-14T19:22:01.075Z,5.60
2019-02-14T19:24:29.464Z,5.77
2019-02-14T19:26:57.849Z,5.33
2019-02-14T19:29:26.224Z,4.53
2019-02-14T19:31:54.603Z,4.20
2019-02-14T19:34:22.980Z,4.40
2019-02-14T19:36:51.372Z,4.57
2019-02-14T19:39:19.760Z,4.50
2019-02-14T19:41:48.402Z,4.43
2019-02-14T19:44:16.783Z,4.70
2019-02-14T19:46:45.167Z,3.97
2019-02-14T19:49:13.536Z,4.20
2019-02-14T19:51:41.909Z,3.90
2019-02-14T19:54:10.300Z,4.03
2019-02-14T19:56:38.680Z,4.60
2019-02-14T19:59:07.988Z,4.50
2019-02-14T20:01:36.425Z,4.00
2019-02-14T20:04:04.798Z,3.93
2019-02-14T20:06:33.171Z,3.97
2019-02-14T20:09:01.570Z,4.00
2019-02-14T20:11:36.801Z,3.87
2019-02-14T20:14:00.060Z,3.80
2019-02-14T20:16:28.427Z,3.70
2019-02-14T20:18:56.799Z,3.80
2019-02-14T20:21:25.191Z,3.57
2019-02-14T20:23:53.566Z,3.13
2019-02-14T20:26:21.944Z,3.23
2019-02-14T20:28:50.344Z,3.30
2019-02-14T20:31:19.028Z,4.00
2019-02-14T20:33:47.408Z,3.70
2019-02-14T20:36:15.792Z,4.93
2019-02-14T20:38:44.180Z,4.30
2019-02-14T20:41:12.632Z,4.03
2019-02-14T20:43:41.020Z,3.27
2019-02-14T20:46:09.393Z,3.87
2019-02-14T20:48:37.769Z,3.90
2019-02-14T20:51:06.177Z,4.17
2019-02-14T20:53:34.537Z,4.30
2019-02-14T20:56:03.209Z,4.17
2019-02-14T20:58:31.574Z,7.10
2019-02-14T21:01:00.323Z,9.27
2019-02-14T21:03:28.708Z,19.30
2019-02-14T21:05:57.085Z,5.37
2019-02-14T21:08:25.467Z,4.67
2019-02-14T21:11:13.196Z,5.23
2019-02-14T21:13:41.571Z,5.60
2019-02-14T21:16:09.986Z,4.50
2019-02-14T21:18:38.368Z,4.90
2019-02-14T21:21:06.741Z,4.87
2019-02-14T21:23:35.138Z,4.70
2019-02-14T21:26:03.498Z,12.37
2019-02-14T21:28:31.957Z,25.70
2019-02-14T21:31:00.336Z,12.80
2019-02-14T21:33:28.732Z,14.80
2019-02-14T21:35:57.106Z,6.30
2019-02-14T21:38:25.499Z,5.40
2019-02-14T21:40:53.879Z,6.30
2019-02-14T21:43:22.275Z,7.43
2019-02-14T21:45:50.651Z,7.80
2019-02-14T21:48:19.025Z,7.30
2019-02-14T21:50:47.408Z,5.73
2019-02-14T21:53:16.063Z,6.13
2019-02-14T21:55:44.461Z,6.17
2019-02-14T21:58:13.256Z,5.50
2019-02-14T22:00:41.663Z,5.03
2019-02-14T22:03:10.056Z,5.27
2019-02-14T22:05:38.696Z,5.10
2019-02-14T22:08:07.381Z,5.17
2019-02-14T22:10:36.517Z,5.80
2019-02-14T22:13:04.901Z,5.33
2019-02-14T22:15:33.275Z,5.37
2019-02-14T22:18:01.907Z,5.87
2019-02-14T22:20:30.284Z,5.70
2019-02-14T22:22:58.659Z,5.87
2019-02-14T22:25:27.041Z,6.33
2019-02-14T22:27:55.428Z,5.83
2019-02-14T22:30:23.819Z,5.00
2019-02-14T22:32:52.196Z,7.70
2019-02-14T22:35:20.576Z,5.50
2019-02-14T22:37:48.960Z,5.70
2019-02-14T22:40:17.349Z,6.03
2019-02-14T22:42:47.536Z,5.83
2019-02-14T22:45:15.897Z,5.17
2019-02-14T22:47:44.836Z,9.03
2019-02-14T22:50:14.071Z,7.97
2019-02-14T22:52:42.534Z,5.90
2019-02-14T22:55:12.357Z,5.43
2019-02-14T22:57:40.916Z,5.47
2019-02-14T23:00:28.920Z,6.57
2019-02-14T23:02:57.304Z,6.00
2019-02-14T23:05:25.746Z,8.47
2019-02-14T23:07:54.123Z,7.53
2019-02-14T23:10:22.507Z,7.10
2019-02-14T23:12:55.642Z,6.23
2019-02-14T23:15:21.077Z,6.47
2019-02-14T23:17:49.465Z,7.97
2019-02-14T23:20:17.831Z,5.83
2019-02-14T23:22:46.215Z,5.50
2019-02-14T23:25:14.594Z,5.93
2019-02-14T23:27:42.967Z,4.90
2019-02-14T23:30:12.298Z,5.53
2019-02-14T23:32:40.664Z,5.37
2019-02-14T23:35:09.051Z,5.67
2019-02-14T23:37:37.428Z,5.73
2019-02-14T23:40:06.952Z,6.10
2019-02-14T23:42:35.327Z,7.90
2019-02-14T23:45:04.554Z,6.57
2019-02-14T23:47:32.928Z,5.67
2019-02-14T23:50:01.318Z,5.67
2019-02-14T23:52:29.687Z,5.30
2019-02-14T23:54:58.063Z,6.07
2019-02-14T23:57:26.453Z,4.90
2019-02-14T23:59:54.844Z,5.50
